NCAR-RAP Real-Time Weather Data

Output produced by METARs form (08 May 2021  15:46 UTC)
found at http://weather.rap.ucar.edu/surface/
 
KTUL 081453Z 15012KT 10SM SCT140 21/13 A2980 RMK AO2 SLP085 60000 T02060133 58007
KTUL 081353Z 16010G20KT 10SM BKN140 BKN200 20/13 A2982 RMK AO2 SLP093 VIRGA ALQDS T02000133
KTUL 081253Z 16010KT 10SM BKN110 OVC200 18/13 A2983 RMK AO2 RAB08E21 SLP094 VIRGA ALQDS P0000 T01830128
KTUL 081153Z 15011KT 10SM BKN130 BKN200 18/12 A2982 RMK AO2 SLP092 T01780122 10189 20167 53002
KTUL 081053Z 13009KT 10SM SCT130 SCT200 18/12 A2981 RMK AO2 SLP089 T01780117
KTUL 080953Z 15009KT 10SM SCT130 SCT200 18/12 A2982 RMK AO2 SLP090 T01830117
KTUL 080853Z 16012G23KT 10SM BKN130 OVC200 18/11 A2981 RMK AO2 SLP089 T01780111 58035
KTUL 080753Z 17012G22KT 10SM SCT100 BKN200 18/11 A2986 RMK AO2 SLP105 T01830106
KTUL 080653Z 14011G20KT 10SM OVC200 18/10 A2988 RMK AO2 SLP110 T01780100
KTUL 080553Z 13009KT 10SM OVC200 17/10 A2992 RMK AO2 SLP126 T01670100 10217 20167 402440100 58007
KTUL 080453Z 14011KT 10SM SCT120 OVC200 17/09 A2994 RMK AO2 SLP134 T01670094
KTUL 080353Z 14011KT 10SM BKN250 17/09 A2995 RMK AO2 SLP138 T01720089
KTUL 080253Z 13010KT 10SM BKN200 BKN250 18/08 A2994 RMK AO2 SLP135 T01780083 53003
KTUL 080153Z 13008KT 10SM FEW110 FEW200 FEW250 18/07 A2993 RMK AO2 SLP131 T01830072
KTUL 080053Z 11009KT 10SM FEW110 FEW200 FEW250 19/07 A2993 RMK AO2 SLP132 T01890067
KTUL 072353Z 11013G19KT 10SM SCT110 22/07 A2993 RMK AO2 SLP132 T02170072 10244 20217 56028
KTUL 072253Z 13014G25KT 10SM BKN110 22/07 A2994 RMK AO2 PK WND 13026/2232 SLP135 T02220072
KTUL 072153Z 13012G22KT 10SM BKN110 22/06 A2996 RMK AO2 SLP142 TCU DSNT NE-SE MOV SE T02220056
KTUL 072053Z 13014G21KT 10SM BKN100 23/06 A3002 RMK AO2 SLP161 T02280056 56034
KTUL 071953Z 15011G20KT 10SM FEW075 FEW100 SCT160 23/06 A3005 RMK AO2 SLP173 T02330061
KTUL 071853Z 16011G17KT 10SM BKN100 BKN120 BKN200 23/06 A3008 RMK AO2 SLP182 CB MOV SE T02330056
KTUL 071753Z 15012KT 10SM FEW065 SCT095 SCT140 23/05 A3012 RMK AO2 LTG DSNT N SLP194 CB DSNT NW-N MOV SE 60000 T02280050 10228 20111 58023
KTUL 071653Z 13011KT 10SM FEW065 SCT075 SCT120 21/05 A3015 RMK AO2 SLP205 CB DSNT NW MOV SE T02110050
KTUL 071553Z 17011KT 10SM BKN080 19/06 A3017 RMK AO2 SLP211 T01890061
KTUL 071453Z 13008KT 10SM OVC095 16/07 A3019 RMK AO2 SLP218 60000 T01560072 50000
KTUL 071353Z 13007KT 10SM BKN090 BKN110 14/07 A3019 RMK AO2 RAB14E27 SLP220 P0000 T01390072
KTUL 071253Z 18006KT 10SM BKN095 14/06 A3020 RMK AO2 SLP223 T01390056
KTUL 071153Z 14006KT 10SM BKN100 11/07 A3019 RMK AO2 SLP218 T01060067 10144 20100 50005
KTUL 071053Z 17003KT 10SM BKN100 12/06 A3019 RMK AO2 SLP218 T01220056
KTUL 070953Z 00000KT 10SM FEW100 12/05 A3018 RMK AO2 SLP215 T01170050
KTUL 070853Z 06004KT 10SM CLR 12/06 A3017 RMK AO2 SLP212 T01170056 58010
KTUL 070753Z 06003KT 10SM CLR 12/06 A3018 RMK AO2 SLP215 T01170056
KTUL 070653Z 00000KT 10SM CLR 12/07 A3020 RMK AO2 SLP222 T01220067
KTUL 070553Z 05003KT 10SM CLR 14/06 A3020 RMK AO2 SLP223 T01390056 10222 20128 402560106 51002
KTUL 070453Z 01003KT 10SM CLR 13/07 A3020 RMK AO2 SLP224 T01280067
KTUL 070353Z 00000KT 10SM CLR 16/05 A3021 RMK AO2 SLP225 T01610050
KTUL 070253Z VRB04KT 10SM CLR 17/04 A3020 RMK AO2 SLP221 T01720044 53014
KTUL 070153Z 04006KT 10SM FEW120 18/04 A3018 RMK AO2 SLP215 T01830044
KTUL 070053Z 05008KT 10SM FEW120 FEW250 21/04 A3015 RMK AO2 SLP206 T02060044
KTUL 062353Z 36012G17KT 10SM FEW150 FEW250 22/03 A3016 RMK AO2 SLP208 T02220033 10256 20222 56007
KTUL 062253Z 32015G21KT 10SM CLR 24/04 A3016 RMK AO2 SLP209 T02390044
KTUL 062153Z 36014G21KT 10SM FEW070 FEW120 24/06 A3017 RMK AO2 SLP211 T02440056
KTUL 062053Z 34013KT 10SM FEW070 FEW120 25/08 A3018 RMK AO2 SLP214 T02500078 58017
KTUL 061953Z 36018G26KT 10SM FEW060 FEW080 24/08 A3020 RMK AO2 PK WND 35026/1952 SLP220 T02440078
KTUL 061853Z 35011G21KT 10SM FEW080 24/08 A3021 RMK AO2 SLP226 T02390083
KTUL 061753Z 36011G19KT 10SM FEW080 23/09 A3023 RMK AO2 SLP231 T02330094 10233 20122 50003
KTUL 061653Z 34015KT 10SM CLR 23/09 A3026 RMK AO2 PRESRR SLP241 T02280089
KTUL 061553Z 34010KT 10SM CLR 21/12 A3023 RMK AO2 SLP230 T02110117